KMTP/MTP METAR and TAF weather

Enter ICAO airport designator
Station Type Date Time Source
KMTP METAR 2019/06/26 04:54 UTC NOAA

KMTP 260454Z AUTO 00000KT 19/19 A2992 RMK AO1 SLP133 T01940189 402170189


Station Type Date Time Source
KMTP Decoded METAR 2019/06/26 04:54 UTC NOAA

MONTAUK AIRPORT, NY, United States (KMTP) 41-04N 071-55W 2M
Jun 26, 2019 - 12:54 AM EDT / 2019.06.26 0454 UTC
Wind: Calm:0
Temperature: 66.9 F (19.4 C)
Dew Point: 66.0 F (18.9 C)
Relative Humidity: 96%
Pressure (altimeter): 29.92 in. Hg (1013 hPa)
ob: KMTP 260454Z AUTO 00000KT 19/19 A2992 RMK AO1 SLP133 T01940189 402170189
cycle: 5

Station Type Date Time Source
KMTP TAF UTC NOAA

Error!

Example: see airport list